sensor_id;sensor_type;location;lat;lon;timestamp;P1;durP1;ratioP1;P2;durP2;ratioP2
76113;SDS011;64845;53.086;5.834;2023-05-10T00:01:48;10.18;;;9.10;;
76113;SDS011;64845;53.086;5.834;2023-05-10T00:04:13;8.40;;;7.60;;
76113;SDS011;64845;53.086;5.834;2023-05-10T00:06:39;7.93;;;7.13;;
76113;SDS011;64845;53.086;5.834;2023-05-10T00:09:04;6.88;;;6.20;;
76113;SDS011;64845;53.086;5.834;2023-05-10T00:11:30;5.18;;;4.78;;
76113;SDS011;64845;53.086;5.834;2023-05-10T00:13:55;5.63;;;5.13;;
76113;SDS011;64845;53.086;5.834;2023-05-10T00:16:21;5.32;;;4.93;;
76113;SDS011;64845;53.086;5.834;2023-05-10T00:18:46;5.80;;;5.20;;
76113;SDS011;64845;53.086;5.834;2023-05-10T00:21:11;6.88;;;6.18;;
76113;SDS011;64845;53.086;5.834;2023-05-10T00:23:37;9.05;;;7.35;;
76113;SDS011;64845;53.086;5.834;2023-05-10T00:26:02;9.23;;;7.22;;
76113;SDS011;64845;53.086;5.834;2023-05-10T00:28:28;9.38;;;7.85;;
76113;SDS011;64845;53.086;5.834;2023-05-10T00:30:54;12.25;;;8.70;;
76113;SDS011;64845;53.086;5.834;2023-05-10T00:33:19;12.82;;;9.98;;
76113;SDS011;64845;53.086;5.834;2023-05-10T00:35:44;14.00;;;9.75;;
76113;SDS011;64845;53.086;5.834;2023-05-10T00:38:10;15.40;;;10.15;;
76113;SDS011;64845;53.086;5.834;2023-05-10T00:40:35;14.93;;;10.38;;
76113;SDS011;64845;53.086;5.834;2023-05-10T00:43:02;14.65;;;9.35;;
76113;SDS011;64845;53.086;5.834;2023-05-10T00:45:28;15.02;;;9.75;;
76113;SDS011;64845;53.086;5.834;2023-05-10T00:47:54;18.05;;;9.48;;
76113;SDS011;64845;53.086;5.834;2023-05-10T00:50:23;19.85;;;8.88;;
76113;SDS011;64845;53.086;5.834;2023-05-10T00:52:49;21.48;;;9.75;;
76113;SDS011;64845;53.086;5.834;2023-05-10T00:55:15;21.63;;;10.55;;
76113;SDS011;64845;53.086;5.834;2023-05-10T00:57:41;26.90;;;11.80;;
76113;SDS011;64845;53.086;5.834;2023-05-10T01:00:07;35.47;;;14.75;;
76113;SDS011;64845;53.086;5.834;2023-05-10T01:02:33;37.50;;;14.65;;
76113;SDS011;64845;53.086;5.834;2023-05-10T01:04:59;33.03;;;14.35;;
76113;SDS011;64845;53.086;5.834;2023-05-10T01:07:26;32.03;;;13.55;;
76113;SDS011;64845;53.086;5.834;2023-05-10T01:09:51;40.90;;;15.55;;
76113;SDS011;64845;53.086;5.834;2023-05-10T01:12:17;39.28;;;14.88;;
76113;SDS011;64845;53.086;5.834;2023-05-10T01:14:42;36.17;;;13.45;;
76113;SDS011;64845;53.086;5.834;2023-05-10T01:17:08;44.13;;;16.30;;
76113;SDS011;64845;53.086;5.834;2023-05-10T01:19:36;40.97;;;16.25;;
76113;SDS011;64845;53.086;5.834;2023-05-10T01:30:40;50.47;;;17.17;;
76113;SDS011;64845;53.086;5.834;2023-05-10T01:33:43;47.67;;;18.23;;
76113;SDS011;64845;53.086;5.834;2023-05-10T01:47:07;33.45;;;19.17;;
76113;SDS011;64845;53.086;5.834;2023-05-10T01:49:42;42.67;;;19.30;;
76113;SDS011;64845;53.086;5.834;2023-05-10T01:52:15;52.05;;;20.80;;
76113;SDS011;64845;53.086;5.834;2023-05-10T01:54:53;40.88;;;19.02;;
76113;SDS011;64845;53.086;5.834;2023-05-10T01:57:25;42.85;;;17.73;;
76113;SDS011;64845;53.086;5.834;2023-05-10T01:59:52;50.13;;;19.17;;
76113;SDS011;64845;53.086;5.834;2023-05-10T02:02:20;38.75;;;17.98;;
76113;SDS011;64845;53.086;5.834;2023-05-10T02:04:46;34.20;;;16.35;;
76113;SDS011;64845;53.086;5.834;2023-05-10T02:07:14;30.23;;;14.02;;
76113;SDS011;64845;53.086;5.834;2023-05-10T02:09:41;38.65;;;16.13;;
76113;SDS011;64845;53.086;5.834;2023-05-10T02:12:12;29.23;;;13.82;;
76113;SDS011;64845;53.086;5.834;2023-05-10T02:14:38;29.95;;;15.07;;
76113;SDS011;64845;53.086;5.834;2023-05-10T02:17:06;24.67;;;13.15;;
76113;SDS011;64845;53.086;5.834;2023-05-10T02:19:33;29.35;;;14.20;;
76113;SDS011;64845;53.086;5.834;2023-05-10T02:22:02;25.63;;;14.13;;
76113;SDS011;64845;53.086;5.834;2023-05-10T02:24:28;28.88;;;14.20;;
76113;SDS011;64845;53.086;5.834;2023-05-10T02:26:55;27.63;;;13.73;;
76113;SDS011;64845;53.086;5.834;2023-05-10T02:29:23;28.85;;;13.18;;
76113;SDS011;64845;53.086;5.834;2023-05-10T02:31:51;27.50;;;13.75;;
76113;SDS011;64845;53.086;5.834;2023-05-10T02:34:19;33.03;;;13.65;;
76113;SDS011;64845;53.086;5.834;2023-05-10T02:36:47;29.20;;;13.48;;
76113;SDS011;64845;53.086;5.834;2023-05-10T02:39:13;31.63;;;13.93;;
76113;SDS011;64845;53.086;5.834;2023-05-10T02:41:40;30.85;;;14.00;;
76113;SDS011;64845;53.086;5.834;2023-05-10T02:44:07;33.15;;;14.23;;
76113;SDS011;64845;53.086;5.834;2023-05-10T02:46:34;29.08;;;13.98;;
76113;SDS011;64845;53.086;5.834;2023-05-10T02:49:01;21.25;;;12.30;;
76113;SDS011;64845;53.086;5.834;2023-05-10T02:51:28;24.77;;;13.32;;
76113;SDS011;64845;53.086;5.834;2023-05-10T02:54:01;20.85;;;13.57;;
76113;SDS011;64845;53.086;5.834;2023-05-10T02:56:34;18.58;;;12.73;;
76113;SDS011;64845;53.086;5.834;2023-05-10T02:59:04;18.70;;;13.20;;
76113;SDS011;64845;53.086;5.834;2023-05-10T03:01:30;19.35;;;12.77;;
76113;SDS011;64845;53.086;5.834;2023-05-10T03:03:55;20.80;;;12.30;;
76113;SDS011;64845;53.086;5.834;2023-05-10T03:06:21;14.93;;;11.23;;
76113;SDS011;64845;53.086;5.834;2023-05-10T03:08:46;16.50;;;11.32;;
76113;SDS011;64845;53.086;5.834;2023-05-10T03:16:15;13.15;;;10.63;;
76113;SDS011;64845;53.086;5.834;2023-05-10T03:18:48;12.38;;;10.82;;
76113;SDS011;64845;53.086;5.834;2023-05-10T03:21:18;11.07;;;9.93;;
76113;SDS011;64845;53.086;5.834;2023-05-10T03:23:50;13.38;;;9.90;;
76113;SDS011;64845;53.086;5.834;2023-05-10T03:26:24;11.48;;;9.73;;
76113;SDS011;64845;53.086;5.834;2023-05-10T03:28:51;12.55;;;9.98;;
76113;SDS011;64845;53.086;5.834;2023-05-10T03:31:17;10.95;;;9.75;;
76113;SDS011;64845;53.086;5.834;2023-05-10T03:33:47;12.75;;;9.60;;
76113;SDS011;64845;53.086;5.834;2023-05-10T03:36:13;10.13;;;9.13;;
76113;SDS011;64845;53.086;5.834;2023-05-10T03:38:38;10.45;;;9.40;;
76113;SDS011;64845;53.086;5.834;2023-05-10T03:41:04;10.27;;;9.07;;
76113;SDS011;64845;53.086;5.834;2023-05-10T03:43:29;11.02;;;9.38;;
76113;SDS011;64845;53.086;5.834;2023-05-10T03:45:55;10.73;;;9.63;;
76113;SDS011;64845;53.086;5.834;2023-05-10T03:48:20;9.93;;;8.95;;
76113;SDS011;64845;53.086;5.834;2023-05-10T03:50:45;10.20;;;9.10;;
76113;SDS011;64845;53.086;5.834;2023-05-10T03:53:11;10.02;;;9.02;;
76113;SDS011;64845;53.086;5.834;2023-05-10T03:55:37;16.08;;;8.43;;
76113;SDS011;64845;53.086;5.834;2023-05-10T03:58:02;9.95;;;9.00;;
76113;SDS011;64845;53.086;5.834;2023-05-10T04:00:27;10.30;;;9.30;;
76113;SDS011;64845;53.086;5.834;2023-05-10T04:02:53;10.20;;;9.20;;
76113;SDS011;64845;53.086;5.834;2023-05-10T04:05:18;9.50;;;8.38;;
76113;SDS011;64845;53.086;5.834;2023-05-10T04:07:43;9.82;;;8.73;;
76113;SDS011;64845;53.086;5.834;2023-05-10T04:10:09;10.13;;;9.10;;
76113;SDS011;64845;53.086;5.834;2023-05-10T04:12:35;10.05;;;8.98;;
76113;SDS011;64845;53.086;5.834;2023-05-10T04:15:00;10.02;;;9.10;;
76113;SDS011;64845;53.086;5.834;2023-05-10T04:17:26;9.68;;;8.73;;
76113;SDS011;64845;53.086;5.834;2023-05-10T04:19:51;9.85;;;8.85;;
76113;SDS011;64845;53.086;5.834;2023-05-10T04:22:19;9.88;;;8.98;;
76113;SDS011;64845;53.086;5.834;2023-05-10T04:24:45;9.52;;;8.50;;
76113;SDS011;64845;53.086;5.834;2023-05-10T04:27:10;12.13;;;8.73;;
76113;SDS011;64845;53.086;5.834;2023-05-10T04:29:36;10.70;;;8.13;;
76113;SDS011;64845;53.086;5.834;2023-05-10T04:32:03;10.75;;;7.70;;
76113;SDS011;64845;53.086;5.834;2023-05-10T04:34:28;9.05;;;8.25;;
76113;SDS011;64845;53.086;5.834;2023-05-10T04:36:54;9.20;;;8.00;;
76113;SDS011;64845;53.086;5.834;2023-05-10T04:39:19;12.05;;;7.35;;
76113;SDS011;64845;53.086;5.834;2023-05-10T04:41:45;7.72;;;6.95;;
76113;SDS011;64845;53.086;5.834;2023-05-10T04:44:10;7.40;;;6.70;;
76113;SDS011;64845;53.086;5.834;2023-05-10T04:46:35;7.13;;;6.22;;
76113;SDS011;64845;53.086;5.834;2023-05-10T04:49:01;8.52;;;7.07;;
76113;SDS011;64845;53.086;5.834;2023-05-10T04:51:26;8.20;;;7.38;;
76113;SDS011;64845;53.086;5.834;2023-05-10T04:53:52;7.97;;;7.03;;
76113;SDS011;64845;53.086;5.834;2023-05-10T04:56:17;8.32;;;7.53;;
76113;SDS011;64845;53.086;5.834;2023-05-10T04:58:42;7.80;;;7.03;;
76113;SDS011;64845;53.086;5.834;2023-05-10T05:01:08;9.50;;;7.30;;
76113;SDS011;64845;53.086;5.834;2023-05-10T05:03:35;8.40;;;7.60;;
76113;SDS011;64845;53.086;5.834;2023-05-10T05:06:01;8.90;;;8.00;;
76113;SDS011;64845;53.086;5.834;2023-05-10T05:08:26;9.10;;;7.75;;
76113;SDS011;64845;53.086;5.834;2023-05-10T05:10:52;9.32;;;8.40;;
76113;SDS011;64845;53.086;5.834;2023-05-10T05:13:17;8.95;;;8.05;;
76113;SDS011;64845;53.086;5.834;2023-05-10T05:15:43;9.38;;;8.48;;
76113;SDS011;64845;53.086;5.834;2023-05-10T05:18:08;9.65;;;8.65;;
76113;SDS011;64845;53.086;5.834;2023-05-10T05:20:34;9.02;;;7.88;;
76113;SDS011;64845;53.086;5.834;2023-05-10T05:22:59;9.40;;;8.40;;
76113;SDS011;64845;53.086;5.834;2023-05-10T05:25:25;10.00;;;8.30;;
76113;SDS011;64845;53.086;5.834;2023-05-10T05:27:51;10.45;;;8.57;;
76113;SDS011;64845;53.086;5.834;2023-05-10T05:30:16;10.05;;;8.25;;
76113;SDS011;64845;53.086;5.834;2023-05-10T05:32:41;8.80;;;7.90;;
76113;SDS011;64845;53.086;5.834;2023-05-10T05:35:07;8.65;;;7.63;;
76113;SDS011;64845;53.086;5.834;2023-05-10T05:37:32;8.80;;;7.70;;
76113;SDS011;64845;53.086;5.834;2023-05-10T05:39:58;8.07;;;6.32;;
76113;SDS011;64845;53.086;5.834;2023-05-10T05:42:23;6.93;;;5.90;;
76113;SDS011;64845;53.086;5.834;2023-05-10T05:44:54;6.28;;;4.85;;
76113;SDS011;64845;53.086;5.834;2023-05-10T05:47:20;5.80;;;5.20;;
76113;SDS011;64845;53.086;5.834;2023-05-10T05:49:45;6.25;;;5.65;;
76113;SDS011;64845;53.086;5.834;2023-05-10T05:52:11;6.28;;;5.60;;
76113;SDS011;64845;53.086;5.834;2023-05-10T05:54:36;8.68;;;7.00;;
76113;SDS011;64845;53.086;5.834;2023-05-10T05:57:02;9.25;;;7.10;;
76113;SDS011;64845;53.086;5.834;2023-05-10T05:59:27;8.98;;;7.10;;
76113;SDS011;64845;53.086;5.834;2023-05-10T06:01:53;8.55;;;6.72;;
76113;SDS011;64845;53.086;5.834;2023-05-10T06:04:19;10.43;;;7.32;;
76113;SDS011;64845;53.086;5.834;2023-05-10T06:06:44;11.57;;;7.03;;
76113;SDS011;64845;53.086;5.834;2023-05-10T06:09:10;10.55;;;7.13;;
76113;SDS011;64845;53.086;5.834;2023-05-10T06:11:35;9.70;;;6.63;;
76113;SDS011;64845;53.086;5.834;2023-05-10T06:14:03;10.38;;;6.75;;
76113;SDS011;64845;53.086;5.834;2023-05-10T06:16:30;8.88;;;6.32;;
76113;SDS011;64845;53.086;5.834;2023-05-10T06:18:55;10.73;;;6.30;;
76113;SDS011;64845;53.086;5.834;2023-05-10T06:21:21;8.73;;;5.75;;
76113;SDS011;64845;53.086;5.834;2023-05-10T06:23:47;9.98;;;6.03;;
76113;SDS011;64845;53.086;5.834;2023-05-10T06:26:12;8.55;;;5.63;;
76113;SDS011;64845;53.086;5.834;2023-05-10T06:28:38;9.45;;;5.50;;
76113;SDS011;64845;53.086;5.834;2023-05-10T06:31:04;7.38;;;4.93;;
76113;SDS011;64845;53.086;5.834;2023-05-10T06:33:30;10.00;;;5.07;;
76113;SDS011;64845;53.086;5.834;2023-05-10T06:35:56;9.73;;;5.20;;
76113;SDS011;64845;53.086;5.834;2023-05-10T06:38:22;10.02;;;4.80;;
76113;SDS011;64845;53.086;5.834;2023-05-10T06:40:47;9.10;;;4.82;;
76113;SDS011;64845;53.086;5.834;2023-05-10T06:43:12;10.30;;;4.70;;
76113;SDS011;64845;53.086;5.834;2023-05-10T06:45:38;9.68;;;4.53;;
76113;SDS011;64845;53.086;5.834;2023-05-10T06:48:03;8.25;;;4.60;;
76113;SDS011;64845;53.086;5.834;2023-05-10T06:50:29;12.88;;;5.13;;
76113;SDS011;64845;53.086;5.834;2023-05-10T06:52:54;11.10;;;5.10;;
76113;SDS011;64845;53.086;5.834;2023-05-10T06:55:20;9.02;;;5.03;;
76113;SDS011;64845;53.086;5.834;2023-05-10T06:57:46;9.25;;;4.68;;
76113;SDS011;64845;53.086;5.834;2023-05-10T07:00:12;9.77;;;4.40;;
76113;SDS011;64845;53.086;5.834;2023-05-10T07:02:38;10.63;;;4.00;;
76113;SDS011;64845;53.086;5.834;2023-05-10T07:05:03;8.93;;;4.15;;
76113;SDS011;64845;53.086;5.834;2023-05-10T07:07:29;9.15;;;4.15;;
76113;SDS011;64845;53.086;5.834;2023-05-10T07:09:55;5.75;;;3.83;;
76113;SDS011;64845;53.086;5.834;2023-05-10T07:12:21;13.95;;;4.50;;
76113;SDS011;64845;53.086;5.834;2023-05-10T07:14:46;6.65;;;3.63;;
76113;SDS011;64845;53.086;5.834;2023-05-10T07:17:12;5.80;;;3.90;;
76113;SDS011;64845;53.086;5.834;2023-05-10T07:19:37;4.82;;;3.05;;
76113;SDS011;64845;53.086;5.834;2023-05-10T07:22:02;6.70;;;2.92;;
76113;SDS011;64845;53.086;5.834;2023-05-10T07:24:28;6.32;;;3.03;;
76113;SDS011;64845;53.086;5.834;2023-05-10T07:26:53;4.88;;;2.53;;
76113;SDS011;64845;53.086;5.834;2023-05-10T07:29:19;4.38;;;2.60;;
76113;SDS011;64845;53.086;5.834;2023-05-10T07:31:44;4.75;;;2.60;;
76113;SDS011;64845;53.086;5.834;2023-05-10T07:34:09;4.82;;;2.60;;
76113;SDS011;64845;53.086;5.834;2023-05-10T07:36:35;3.38;;;2.63;;
76113;SDS011;64845;53.086;5.834;2023-05-10T07:39:00;3.17;;;2.50;;
76113;SDS011;64845;53.086;5.834;2023-05-10T07:41:26;3.92;;;2.67;;
76113;SDS011;64845;53.086;5.834;2023-05-10T07:43:52;4.05;;;2.80;;
76113;SDS011;64845;53.086;5.834;2023-05-10T07:46:17;4.40;;;3.08;;
76113;SDS011;64845;53.086;5.834;2023-05-10T07:48:44;4.40;;;3.10;;
76113;SDS011;64845;53.086;5.834;2023-05-10T07:51:09;4.18;;;3.28;;
76113;SDS011;64845;53.086;5.834;2023-05-10T07:53:35;5.15;;;4.00;;
76113;SDS011;64845;53.086;5.834;2023-05-10T07:56:19;4.82;;;3.50;;
76113;SDS011;64845;53.086;5.834;2023-05-10T07:58:45;5.07;;;4.18;;
76113;SDS011;64845;53.086;5.834;2023-05-10T08:01:10;5.65;;;3.85;;
76113;SDS011;64845;53.086;5.834;2023-05-10T08:03:35;6.00;;;3.90;;
76113;SDS011;64845;53.086;5.834;2023-05-10T08:06:01;5.90;;;3.80;;
76113;SDS011;64845;53.086;5.834;2023-05-10T08:08:26;6.28;;;4.38;;
76113;SDS011;64845;53.086;5.834;2023-05-10T08:10:51;6.93;;;4.38;;
76113;SDS011;64845;53.086;5.834;2023-05-10T08:13:17;8.65;;;4.88;;
76113;SDS011;64845;53.086;5.834;2023-05-10T08:15:42;7.50;;;5.22;;
76113;SDS011;64845;53.086;5.834;2023-05-10T08:18:08;5.55;;;4.60;;
76113;SDS011;64845;53.086;5.834;2023-05-10T08:20:33;7.88;;;5.30;;
76113;SDS011;64845;53.086;5.834;2023-05-10T08:22:58;7.10;;;5.30;;
76113;SDS011;64845;53.086;5.834;2023-05-10T08:25:23;8.50;;;5.57;;
76113;SDS011;64845;53.086;5.834;2023-05-10T08:27:49;7.07;;;4.97;;
76113;SDS011;64845;53.086;5.834;2023-05-10T08:30:14;9.40;;;5.63;;
76113;SDS011;64845;53.086;5.834;2023-05-10T08:32:40;8.32;;;5.85;;
76113;SDS011;64845;53.086;5.834;2023-05-10T08:35:05;8.73;;;5.75;;
76113;SDS011;64845;53.086;5.834;2023-05-10T08:37:31;7.55;;;4.97;;
76113;SDS011;64845;53.086;5.834;2023-05-10T08:39:57;6.65;;;5.10;;
76113;SDS011;64845;53.086;5.834;2023-05-10T08:42:22;7.50;;;4.97;;
76113;SDS011;64845;53.086;5.834;2023-05-10T08:44:53;8.05;;;4.95;;
76113;SDS011;64845;53.086;5.834;2023-05-10T08:47:20;6.97;;;5.03;;
76113;SDS011;64845;53.086;5.834;2023-05-10T08:49:47;7.00;;;5.03;;
76113;SDS011;64845;53.086;5.834;2023-05-10T08:52:16;8.45;;;5.60;;
76113;SDS011;64845;53.086;5.834;2023-05-10T08:54:43;8.85;;;5.22;;
76113;SDS011;64845;53.086;5.834;2023-05-10T08:57:09;8.70;;;4.95;;
76113;SDS011;64845;53.086;5.834;2023-05-10T08:59:35;7.63;;;5.30;;
76113;SDS011;64845;53.086;5.834;2023-05-10T09:02:00;10.25;;;5.47;;
76113;SDS011;64845;53.086;5.834;2023-05-10T09:04:29;11.88;;;6.15;;
76113;SDS011;64845;53.086;5.834;2023-05-10T09:06:55;12.07;;;5.72;;
76113;SDS011;64845;53.086;5.834;2023-05-10T09:09:21;7.25;;;5.15;;
76113;SDS011;64845;53.086;5.834;2023-05-10T09:11:46;7.85;;;5.75;;
76113;SDS011;64845;53.086;5.834;2023-05-10T09:14:12;7.38;;;4.88;;
76113;SDS011;64845;53.086;5.834;2023-05-10T09:16:39;7.72;;;5.82;;
76113;SDS011;64845;53.086;5.834;2023-05-10T09:19:05;9.38;;;5.60;;
76113;SDS011;64845;53.086;5.834;2023-05-10T09:21:31;10.48;;;5.63;;
76113;SDS011;64845;53.086;5.834;2023-05-10T09:24:02;6.10;;;5.15;;
76113;SDS011;64845;53.086;5.834;2023-05-10T09:26:29;6.97;;;5.30;;
76113;SDS011;64845;53.086;5.834;2023-05-10T09:28:55;9.93;;;5.93;;
76113;SDS011;64845;53.086;5.834;2023-05-10T09:31:22;10.00;;;6.43;;
76113;SDS011;64845;53.086;5.834;2023-05-10T09:33:48;7.68;;;6.07;;
76113;SDS011;64845;53.086;5.834;2023-05-10T09:36:15;8.98;;;6.22;;
76113;SDS011;64845;53.086;5.834;2023-05-10T09:38:47;9.55;;;6.35;;
76113;SDS011;64845;53.086;5.834;2023-05-10T09:41:21;10.10;;;6.60;;
76113;SDS011;64845;53.086;5.834;2023-05-10T09:43:48;11.43;;;6.70;;
76113;SDS011;64845;53.086;5.834;2023-05-10T09:46:14;8.70;;;6.40;;
76113;SDS011;64845;53.086;5.834;2023-05-10T09:48:41;12.70;;;7.70;;
76113;SDS011;64845;53.086;5.834;2023-05-10T09:51:08;12.65;;;8.65;;
76113;SDS011;64845;53.086;5.834;2023-05-10T09:53:34;13.02;;;9.00;;
76113;SDS011;64845;53.086;5.834;2023-05-10T09:55:59;13.70;;;9.65;;
76113;SDS011;64845;53.086;5.834;2023-05-10T09:58:25;15.07;;;9.30;;
76113;SDS011;64845;53.086;5.834;2023-05-10T10:00:50;16.08;;;10.10;;
76113;SDS011;64845;53.086;5.834;2023-05-10T10:03:18;12.63;;;8.52;;
76113;SDS011;64845;53.086;5.834;2023-05-10T10:05:45;11.32;;;7.95;;
76113;SDS011;64845;53.086;5.834;2023-05-10T10:08:12;11.45;;;7.82;;
76113;SDS011;64845;53.086;5.834;2023-05-10T10:10:38;14.63;;;8.35;;
76113;SDS011;64845;53.086;5.834;2023-05-10T10:13:10;13.48;;;8.07;;
76113;SDS011;64845;53.086;5.834;2023-05-10T10:15:35;12.50;;;7.65;;
76113;SDS011;64845;53.086;5.834;2023-05-10T10:18:00;10.35;;;6.70;;
76113;SDS011;64845;53.086;5.834;2023-05-10T10:20:26;10.65;;;7.22;;
76113;SDS011;64845;53.086;5.834;2023-05-10T10:22:54;11.00;;;8.50;;
76113;SDS011;64845;53.086;5.834;2023-05-10T10:25:19;10.57;;;8.00;;
76113;SDS011;64845;53.086;5.834;2023-05-10T10:35:51;10.57;;;8.00;;
76113;SDS011;64845;53.086;5.834;2023-05-10T10:38:17;13.60;;;7.57;;
76113;SDS011;64845;53.086;5.834;2023-05-10T10:40:43;10.73;;;7.55;;
76113;SDS011;64845;53.086;5.834;2023-05-10T10:43:21;10.10;;;7.95;;
76113;SDS011;64845;53.086;5.834;2023-05-10T10:48:38;9.00;;;7.00;;
76113;SDS011;64845;53.086;5.834;2023-05-10T10:51:04;8.93;;;7.43;;
76113;SDS011;64845;53.086;5.834;2023-05-10T10:53:30;8.05;;;6.72;;
76113;SDS011;64845;53.086;5.834;2023-05-10T10:56:08;11.38;;;7.53;;
76113;SDS011;64845;53.086;5.834;2023-05-10T10:58:35;11.45;;;8.25;;
76113;SDS011;64845;53.086;5.834;2023-05-10T11:01:09;11.43;;;8.60;;
76113;SDS011;64845;53.086;5.834;2023-05-10T11:03:36;12.07;;;8.68;;
76113;SDS011;64845;53.086;5.834;2023-05-10T11:06:01;12.40;;;9.40;;
76113;SDS011;64845;53.086;5.834;2023-05-10T11:08:31;13.27;;;9.82;;
76113;SDS011;64845;53.086;5.834;2023-05-10T11:15:57;12.07;;;8.75;;
76113;SDS011;64845;53.086;5.834;2023-05-10T11:18:29;14.05;;;8.60;;
76113;SDS011;64845;53.086;5.834;2023-05-10T11:20:59;11.10;;;8.93;;
76113;SDS011;64845;53.086;5.834;2023-05-10T11:23:31;10.50;;;7.93;;
76113;SDS011;64845;53.086;5.834;2023-05-10T11:25:58;10.85;;;6.85;;
76113;SDS011;64845;53.086;5.834;2023-05-10T11:28:25;9.32;;;7.45;;
76113;SDS011;64845;53.086;5.834;2023-05-10T11:30:52;10.68;;;7.75;;
76113;SDS011;64845;53.086;5.834;2023-05-10T11:33:18;9.52;;;7.55;;
76113;SDS011;64845;53.086;5.834;2023-05-10T11:35:44;11.68;;;7.57;;
76113;SDS011;64845;53.086;5.834;2023-05-10T11:38:11;9.07;;;7.55;;
76113;SDS011;64845;53.086;5.834;2023-05-10T11:40:38;12.52;;;7.20;;
76113;SDS011;64845;53.086;5.834;2023-05-10T11:43:04;9.25;;;7.45;;
76113;SDS011;64845;53.086;5.834;2023-05-10T11:45:33;9.82;;;7.82;;
76113;SDS011;64845;53.086;5.834;2023-05-10T11:48:00;7.50;;;6.70;;
76113;SDS011;64845;53.086;5.834;2023-05-10T11:50:27;10.27;;;6.18;;
76113;SDS011;64845;53.086;5.834;2023-05-10T11:52:53;10.05;;;5.95;;
76113;SDS011;64845;53.086;5.834;2023-05-10T11:55:19;7.72;;;5.85;;
76113;SDS011;64845;53.086;5.834;2023-05-10T11:57:45;7.13;;;5.60;;
76113;SDS011;64845;53.086;5.834;2023-05-10T12:00:11;7.68;;;5.43;;
76113;SDS011;64845;53.086;5.834;2023-05-10T12:02:37;7.80;;;5.50;;
76113;SDS011;64845;53.086;5.834;2023-05-10T12:05:03;10.02;;;6.68;;
76113;SDS011;64845;53.086;5.834;2023-05-10T12:07:30;9.18;;;6.18;;
76113;SDS011;64845;53.086;5.834;2023-05-10T12:10:09;7.88;;;5.55;;
76113;SDS011;64845;53.086;5.834;2023-05-10T12:12:39;7.40;;;6.40;;
76113;SDS011;64845;53.086;5.834;2023-05-10T12:15:12;6.88;;;6.18;;
76113;SDS011;64845;53.086;5.834;2023-05-10T12:17:44;6.30;;;5.70;;
76113;SDS011;64845;53.086;5.834;2023-05-10T12:20:14;6.05;;;4.85;;
76113;SDS011;64845;53.086;5.834;2023-05-10T12:22:47;7.18;;;5.35;;
76113;SDS011;64845;53.086;5.834;2023-05-10T12:25:15;5.35;;;4.85;;
76113;SDS011;64845;53.086;5.834;2023-05-10T12:27:46;8.45;;;5.53;;
76113;SDS011;64845;53.086;5.834;2023-05-10T12:30:13;5.70;;;5.10;;
76113;SDS011;64845;53.086;5.834;2023-05-10T12:32:47;7.47;;;5.68;;
76113;SDS011;64845;53.086;5.834;2023-05-10T12:35:13;9.30;;;6.28;;
76113;SDS011;64845;53.086;5.834;2023-05-10T12:37:38;8.05;;;6.63;;
76113;SDS011;64845;53.086;5.834;2023-05-10T12:40:07;8.23;;;6.50;;
76113;SDS011;64845;53.086;5.834;2023-05-10T12:42:34;10.77;;;6.93;;
76113;SDS011;64845;53.086;5.834;2023-05-10T12:45:03;9.20;;;7.47;;
76113;SDS011;64845;53.086;5.834;2023-05-10T12:47:30;9.55;;;7.18;;
76113;SDS011;64845;53.086;5.834;2023-05-10T12:49:56;8.45;;;7.22;;
76113;SDS011;64845;53.086;5.834;2023-05-10T12:52:22;8.38;;;6.68;;
76113;SDS011;64845;53.086;5.834;2023-05-10T12:54:47;9.80;;;7.15;;
76113;SDS011;64845;53.086;5.834;2023-05-10T12:57:12;8.02;;;6.20;;
76113;SDS011;64845;53.086;5.834;2023-05-10T12:59:38;12.77;;;6.60;;
76113;SDS011;64845;53.086;5.834;2023-05-10T13:02:04;7.18;;;6.00;;
76113;SDS011;64845;53.086;5.834;2023-05-10T13:04:30;8.27;;;6.18;;
76113;SDS011;64845;53.086;5.834;2023-05-10T13:06:55;10.05;;;7.35;;
76113;SDS011;64845;53.086;5.834;2023-05-10T13:09:23;9.98;;;7.18;;
76113;SDS011;64845;53.086;5.834;2023-05-10T13:11:53;8.80;;;6.40;;
76113;SDS011;64845;53.086;5.834;2023-05-10T13:14:19;6.18;;;3.35;;
76113;SDS011;64845;53.086;5.834;2023-05-10T13:16:45;6.22;;;3.83;;
76113;SDS011;64845;53.086;5.834;2023-05-10T13:19:13;9.05;;;5.22;;
76113;SDS011;64845;53.086;5.834;2023-05-10T13:21:39;6.85;;;5.18;;
76113;SDS011;64845;53.086;5.834;2023-05-10T13:24:07;8.98;;;4.35;;
76113;SDS011;64845;53.086;5.834;2023-05-10T13:26:33;6.60;;;3.50;;
76113;SDS011;64845;53.086;5.834;2023-05-10T13:28:58;4.30;;;2.83;;
76113;SDS011;64845;53.086;5.834;2023-05-10T13:31:24;1.85;;;1.67;;
76113;SDS011;64845;53.086;5.834;2023-05-10T13:33:49;4.32;;;2.60;;
76113;SDS011;64845;53.086;5.834;2023-05-10T13:36:15;4.03;;;2.75;;
76113;SDS011;64845;53.086;5.834;2023-05-10T13:38:40;4.95;;;2.90;;
76113;SDS011;64845;53.086;5.834;2023-05-10T13:41:05;6.47;;;3.20;;
76113;SDS011;64845;53.086;5.834;2023-05-10T13:43:31;5.03;;;3.83;;
76113;SDS011;64845;53.086;5.834;2023-05-10T13:45:56;7.00;;;5.53;;
76113;SDS011;64845;53.086;5.834;2023-05-10T13:48:22;9.35;;;7.13;;
76113;SDS011;64845;53.086;5.834;2023-05-10T13:50:47;6.28;;;5.05;;
76113;SDS011;64845;53.086;5.834;2023-05-10T13:53:13;7.47;;;6.65;;
76113;SDS011;64845;53.086;5.834;2023-05-10T13:55:39;8.00;;;6.75;;
76113;SDS011;64845;53.086;5.834;2023-05-10T13:58:04;7.93;;;7.13;;
76113;SDS011;64845;53.086;5.834;2023-05-10T14:00:30;10.48;;;7.35;;
76113;SDS011;64845;53.086;5.834;2023-05-10T14:02:55;11.18;;;7.55;;
76113;SDS011;64845;53.086;5.834;2023-05-10T14:05:21;8.25;;;7.05;;
76113;SDS011;64845;53.086;5.834;2023-05-10T14:07:46;8.25;;;6.95;;
76113;SDS011;64845;53.086;5.834;2023-05-10T14:10:12;9.88;;;8.40;;
76113;SDS011;64845;53.086;5.834;2023-05-10T14:12:37;11.63;;;8.15;;
76113;SDS011;64845;53.086;5.834;2023-05-10T14:15:03;8.00;;;7.20;;
76113;SDS011;64845;53.086;5.834;2023-05-10T14:17:31;8.43;;;7.22;;
76113;SDS011;64845;53.086;5.834;2023-05-10T14:19:56;9.82;;;8.18;;
76113;SDS011;64845;53.086;5.834;2023-05-10T14:22:22;9.18;;;8.07;;
76113;SDS011;64845;53.086;5.834;2023-05-10T14:24:47;8.85;;;7.95;;
76113;SDS011;64845;53.086;5.834;2023-05-10T14:27:13;8.38;;;7.47;;
76113;SDS011;64845;53.086;5.834;2023-05-10T14:29:39;8.80;;;7.25;;
76113;SDS011;64845;53.086;5.834;2023-05-10T14:32:04;8.85;;;7.00;;
76113;SDS011;64845;53.086;5.834;2023-05-10T14:34:30;6.60;;;5.93;;
76113;SDS011;64845;53.086;5.834;2023-05-10T14:36:55;6.88;;;5.03;;
76113;SDS011;64845;53.086;5.834;2023-05-10T14:39:21;7.55;;;5.35;;
76113;SDS011;64845;53.086;5.834;2023-05-10T14:41:47;7.75;;;4.50;;
76113;SDS011;64845;53.086;5.834;2023-05-10T14:44:13;4.57;;;4.18;;
76113;SDS011;64845;53.086;5.834;2023-05-10T14:46:40;6.25;;;4.53;;
76113;SDS011;64845;53.086;5.834;2023-05-10T14:49:06;5.07;;;4.53;;
76113;SDS011;64845;53.086;5.834;2023-05-10T14:51:32;13.40;;;5.63;;
76113;SDS011;64845;53.086;5.834;2023-05-10T14:53:57;6.40;;;5.55;;
76113;SDS011;64845;53.086;5.834;2023-05-10T14:56:23;5.78;;;5.10;;
76113;SDS011;64845;53.086;5.834;2023-05-10T14:58:49;6.93;;;5.70;;
76113;SDS011;64845;53.086;5.834;2023-05-10T15:01:14;6.40;;;5.63;;
76113;SDS011;64845;53.086;5.834;2023-05-10T15:03:40;6.18;;;5.47;;
76113;SDS011;64845;53.086;5.834;2023-05-10T15:06:05;7.28;;;5.45;;
76113;SDS011;64845;53.086;5.834;2023-05-10T15:08:32;6.38;;;5.78;;
76113;SDS011;64845;53.086;5.834;2023-05-10T15:10:58;6.30;;;5.47;;
76113;SDS011;64845;53.086;5.834;2023-05-10T15:13:23;6.30;;;5.65;;
76113;SDS011;64845;53.086;5.834;2023-05-10T15:15:48;6.60;;;5.90;;
76113;SDS011;64845;53.086;5.834;2023-05-10T15:18:14;7.13;;;6.18;;